createdAt,value
2019-04-20T00:01:29.380Z,70.50
2019-04-20T00:03:55.590Z,70.80
2019-04-20T00:06:25.491Z,70.60
2019-04-20T00:09:03.280Z,71.30
2019-04-20T00:11:31.114Z,71.80
2019-04-20T00:14:04.122Z,71.40
2019-04-20T00:16:28.977Z,71.60
2019-04-20T00:19:01.818Z,72.10
2019-04-20T00:21:43.048Z,72.60
2019-04-20T00:24:55.607Z,72.60
2019-04-20T00:28:39.870Z,76.20
2019-04-20T00:31:04.658Z,73.90
2019-04-20T00:33:52.838Z,76.40
2019-04-20T00:36:15.992Z,74.10
2019-04-20T00:38:50.057Z,74.00
2019-04-20T00:41:18.863Z,73.60
2019-04-20T00:43:49.162Z,73.60
2019-04-20T00:46:26.397Z,73.30
2019-04-20T00:48:59.460Z,73.00
2019-04-20T00:51:37.637Z,72.90
2019-04-20T00:53:55.890Z,72.40
2019-04-20T00:56:24.458Z,72.70
2019-04-20T00:59:09.140Z,72.20
2019-04-20T01:01:47.463Z,71.60
2019-04-20T01:04:14.877Z,71.30
2019-04-20T01:10:07.143Z,70.70
2019-04-20T01:12:37.411Z,73.10
2019-04-20T01:15:10.939Z,69.90
2019-04-20T01:17:41.560Z,69.90
2019-04-20T01:20:09.851Z,69.70
2019-04-20T01:22:46.758Z,69.50
2019-04-20T01:25:17.232Z,69.80
2019-04-20T01:28:03.454Z,69.20
2019-04-20T01:30:20.789Z,69.00
2019-04-20T01:33:00.204Z,68.90
2019-04-20T01:35:30.038Z,68.80
2019-04-20T01:38:07.478Z,68.60
2019-04-20T01:40:19.013Z,68.70
2019-04-20T01:42:48.982Z,68.70
2019-04-20T01:45:26.839Z,69.00
2019-04-20T01:47:54.095Z,69.20
2019-04-20T01:50:26.096Z,68.60
2019-04-20T01:53:21.425Z,69.20
2019-04-20T01:55:58.406Z,69.80
2019-04-20T01:58:35.209Z,68.90
2019-04-20T02:00:49.716Z,69.00
2019-04-20T02:03:43.386Z,69.20
2019-04-20T02:06:16.727Z,69.80
2019-04-20T02:08:44.107Z,69.00
2019-04-20T02:11:20.884Z,68.90
2019-04-20T02:13:51.601Z,69.00
2019-04-20T02:16:27.315Z,69.20
2019-04-20T02:19:06.706Z,69.30
2019-04-20T02:21:34.161Z,69.20
2019-04-20T02:23:55.554Z,69.40
2019-04-20T02:26:21.744Z,69.60
2019-04-20T02:29:30.575Z,69.60
2019-04-20T02:34:59.226Z,69.80
2019-04-20T02:40:01.987Z,69.80
2019-04-20T02:42:19.688Z,70.20
2019-04-20T02:45:01.345Z,70.30
2019-04-20T02:47:24.572Z,70.40
2019-04-20T02:49:54.195Z,70.70
2019-04-20T02:52:34.003Z,70.90
2019-04-20T02:55:09.307Z,71.00
2019-04-20T03:02:21.939Z,71.60
2019-04-20T03:04:47.829Z,71.80
2019-04-20T03:07:25.534Z,71.80
2019-04-20T03:10:04.031Z,71.80
2019-04-20T03:12:53.712Z,71.80
2019-04-20T03:15:00.810Z,72.40
2019-04-20T03:17:39.124Z,72.50
2019-04-20T03:19:58.502Z,72.60
2019-04-20T03:23:07.324Z,72.90
2019-04-20T03:25:13.488Z,73.00
2019-04-20T03:27:41.211Z,73.00
2019-04-20T03:36:19.870Z,74.20
2019-04-20T03:38:41.505Z,73.30
2019-04-20T03:41:04.848Z,73.50
2019-04-20T03:43:23.065Z,73.40
2019-04-20T03:45:59.523Z,73.50
2019-04-20T03:48:40.918Z,73.50
2019-04-20T03:51:26.817Z,73.10
2019-04-20T03:54:02.855Z,73.30
2019-04-20T04:02:37.785Z,73.20
2019-04-20T04:05:03.323Z,76.20
2019-04-20T04:07:20.092Z,72.90
2019-04-20T04:10:00.825Z,73.00
2019-04-20T04:12:53.011Z,73.70
2019-04-20T04:15:23.135Z,76.00
2019-04-20T04:17:53.093Z,72.90
2019-04-20T04:20:27.565Z,72.60
2019-04-20T04:23:11.489Z,72.70
2019-04-20T04:25:39.806Z,71.90
2019-04-20T04:28:27.341Z,71.90
2019-04-20T04:31:05.162Z,72.20
2019-04-20T04:33:53.170Z,71.60
2019-04-20T04:36:00.437Z,71.80
2019-04-20T04:38:37.553Z,71.60
2019-04-20T04:41:17.055Z,71.10
2019-04-20T04:43:37.260Z,70.70
2019-04-20T04:45:51.207Z,70.80
2019-04-20T04:48:28.289Z,70.90
2019-04-20T04:50:59.005Z,70.60
2019-04-20T04:53:36.965Z,70.40
2019-04-20T04:56:00.389Z,70.80
2019-04-20T04:58:25.734Z,70.40
2019-04-20T05:01:01.311Z,70.20
2019-04-20T05:03:44.759Z,70.10
2019-04-20T05:06:19.712Z,69.80
2019-04-20T05:08:39.621Z,70.10
2019-04-20T05:11:04.820Z,69.40
2019-04-20T05:14:05.217Z,69.40
2019-04-20T05:16:50.000Z,70.40
2019-04-20T05:19:47.782Z,72.20
2019-04-20T05:22:19.641Z,70.00
2019-04-20T05:24:53.536Z,69.50
2019-04-20T05:27:36.417Z,69.10
2019-04-20T05:29:46.730Z,68.50
2019-04-20T05:32:23.563Z,69.50
2019-04-20T05:35:26.878Z,69.00
2019-04-20T05:40:35.197Z,69.40
2019-04-20T05:42:59.502Z,69.10
2019-04-20T05:45:28.854Z,68.80
2019-04-20T05:48:04.582Z,69.00
2019-04-20T05:50:37.938Z,68.70
2019-04-20T05:53:07.852Z,69.30
2019-04-20T05:55:39.063Z,68.80
2019-04-20T05:58:13.945Z,67.90
2019-04-20T06:00:47.981Z,68.60
2019-04-20T06:03:11.030Z,67.80
2019-04-20T06:05:53.668Z,68.20
2019-04-20T06:08:29.072Z,67.90
2019-04-20T06:10:49.432Z,68.50
2019-04-20T06:16:54.069Z,66.40
2019-04-20T06:19:32.145Z,67.30
2019-04-20T06:21:52.950Z,64.20
2019-04-20T06:24:26.746Z,64.90
2019-04-20T06:26:59.461Z,63.50
2019-04-20T06:29:23.682Z,62.80
2019-04-20T06:31:59.164Z,63.10
2019-04-20T06:37:02.060Z,63.00
2019-04-20T06:44:41.302Z,62.60
2019-04-20T06:47:24.283Z,62.60
2019-04-20T06:49:39.354Z,62.50
2019-04-20T06:52:25.900Z,60.30
2019-04-20T06:55:01.634Z,59.30
2019-04-20T06:57:37.222Z,59.50
2019-04-20T07:00:12.698Z,59.60
2019-04-20T07:02:44.329Z,60.90
2019-04-20T07:05:27.335Z,60.10
2019-04-20T07:07:47.574Z,59.90
2019-04-20T07:10:34.413Z,59.80
2019-04-20T07:12:42.559Z,59.20
2019-04-20T07:15:17.398Z,59.80
2019-04-20T07:20:26.087Z,58.20
2019-04-20T07:23:18.627Z,58.70
2019-04-20T07:25:40.312Z,58.10
2019-04-20T07:28:12.800Z,58.40
2019-04-20T07:30:42.128Z,58.80
2019-04-20T07:33:11.058Z,58.00
2019-04-20T07:35:40.115Z,57.50
2019-04-20T07:38:30.025Z,58.30
2019-04-20T07:40:44.042Z,57.30
2019-04-20T07:43:09.275Z,57.20
2019-04-20T07:45:46.682Z,58.10
2019-04-20T07:48:14.996Z,57.40
2019-04-20T07:50:40.896Z,58.00
2019-04-20T07:53:18.781Z,57.10
2019-04-20T07:55:54.164Z,56.70
2019-04-20T07:58:25.055Z,56.60
2019-04-20T08:01:17.815Z,55.40
2019-04-20T08:03:47.090Z,56.30
2019-04-20T08:06:03.665Z,56.90
2019-04-20T08:08:40.706Z,56.90
2019-04-20T08:11:13.834Z,56.90
2019-04-20T08:16:23.089Z,57.00
2019-04-20T08:18:51.315Z,56.10
2019-04-20T08:21:24.320Z,55.60
2019-04-20T08:23:50.265Z,57.30
2019-04-20T08:26:11.306Z,53.70
2019-04-20T08:28:46.505Z,55.30
2019-04-20T08:31:35.779Z,53.70
2019-04-20T08:34:27.893Z,54.00
2019-04-20T08:36:58.469Z,54.90
2019-04-20T08:39:38.149Z,55.30
2019-04-20T08:42:00.437Z,55.70
2019-04-20T08:44:51.803Z,54.30
2019-04-20T08:47:14.661Z,54.90
2019-04-20T08:49:35.254Z,55.40
2019-04-20T08:52:34.402Z,55.40
2019-04-20T08:54:32.988Z,55.50
2019-04-20T08:56:53.662Z,55.30
2019-04-20T08:59:18.920Z,55.60
2019-04-20T09:01:49.426Z,54.30
2019-04-20T09:04:22.997Z,55.70
2019-04-20T09:07:02.362Z,53.90
2019-04-20T09:12:08.966Z,53.00
2019-04-20T09:14:25.593Z,54.80
2019-04-20T09:17:04.975Z,54.40
2019-04-20T09:19:36.759Z,54.80
2019-04-20T09:22:28.342Z,54.70
2019-04-20T09:25:19.188Z,52.40
2019-04-20T09:27:28.968Z,53.90
2019-04-20T09:30:04.602Z,54.20
2019-04-20T09:32:56.672Z,55.40
2019-04-20T09:35:31.269Z,54.40
2019-04-20T09:38:07.306Z,55.20
2019-04-20T09:43:11.803Z,55.60
2019-04-20T09:45:49.010Z,54.70
2019-04-20T09:48:25.196Z,55.40
2019-04-20T09:51:05.153Z,56.00
2019-04-20T09:53:31.641Z,54.90
2019-04-20T09:56:06.480Z,54.70
2019-04-20T09:58:32.050Z,55.40
2019-04-20T10:01:08.486Z,55.50
2019-04-20T10:03:29.048Z,55.20
2019-04-20T10:08:51.508Z,57.10
2019-04-20T10:11:23.643Z,57.50
2019-04-20T10:13:54.450Z,55.10
2019-04-20T10:16:26.004Z,54.20
2019-04-20T10:18:56.913Z,54.10
2019-04-20T10:21:27.664Z,54.60
2019-04-20T10:23:58.795Z,53.10
2019-04-20T10:26:28.616Z,53.90
2019-04-20T10:28:57.520Z,55.10
2019-04-20T10:31:28.496Z,53.50
2019-04-20T10:33:58.213Z,55.90
2019-04-20T10:39:18.568Z,55.30
2019-04-20T10:41:52.620Z,56.40
2019-04-20T10:44:23.003Z,56.20
2019-04-20T10:46:53.427Z,56.50
2019-04-20T10:49:35.351Z,57.40
2019-04-20T10:52:07.956Z,58.00
2019-04-20T10:54:38.502Z,57.90
2019-04-20T10:57:09.828Z,56.90
2019-04-20T10:59:39.608Z,56.40
2019-04-20T11:02:10.168Z,56.80
2019-04-20T11:04:39.027Z,56.10
2019-04-20T11:07:10.420Z,57.50
2019-04-20T11:09:40.743Z,56.30
2019-04-20T11:12:10.568Z,56.30
2019-04-20T11:14:44.295Z,56.00
2019-04-20T11:17:12.392Z,55.00
2019-04-20T11:19:43.377Z,55.50
2019-04-20T11:22:14.289Z,55.30
2019-04-20T11:24:48.217Z,55.00
2019-04-20T11:27:38.286Z,55.30
2019-04-20T11:30:09.957Z,55.40
2019-04-20T11:32:40.193Z,54.60
2019-04-20T11:35:21.342Z,53.40
2019-04-20T11:37:41.264Z,53.50
2019-04-20T11:40:10.937Z,52.10
2019-04-20T11:42:41.651Z,52.50
2019-04-20T11:45:11.273Z,52.80
2019-04-20T11:47:40.040Z,53.50
2019-04-20T11:50:09.548Z,52.50
2019-04-20T11:52:43.857Z,51.90
2019-04-20T11:55:10.539Z,50.50
2019-04-20T11:57:41.140Z,53.40
2019-04-20T12:00:13.026Z,53.80
2019-04-20T12:02:46.153Z,53.80
2019-04-20T12:05:26.177Z,52.10
2019-04-20T12:07:55.431Z,51.40
2019-04-20T12:10:26.419Z,57.10
2019-04-20T12:12:57.420Z,51.50
2019-04-20T12:15:28.627Z,51.10
2019-04-20T12:18:11.604Z,51.10
2019-04-20T12:20:41.249Z,53.40
2019-04-20T12:23:10.733Z,52.80
2019-04-20T12:25:41.098Z,50.80
2019-04-20T12:28:11.569Z,51.10
2019-04-20T12:30:41.905Z,51.50
2019-04-20T12:33:11.919Z,51.80
2019-04-20T12:35:42.512Z,52.40
2019-04-20T12:38:12.674Z,52.80
2019-04-20T12:40:42.501Z,50.60
2019-04-20T12:43:11.335Z,53.20
2019-04-20T12:45:41.748Z,51.70
2019-04-20T12:48:13.396Z,50.80
2019-04-20T12:50:43.825Z,52.30
2019-04-20T12:53:14.733Z,52.90
2019-04-20T12:55:44.450Z,52.90
2019-04-20T12:58:14.478Z,53.40
2019-04-20T13:00:49.639Z,52.40
2019-04-20T13:03:19.410Z,54.20
2019-04-20T13:05:50.066Z,52.10
2019-04-20T13:08:26.939Z,54.00
2019-04-20T13:10:55.531Z,53.50
2019-04-20T13:16:30.589Z,54.50
2019-04-20T13:19:03.378Z,53.70
2019-04-20T13:21:52.770Z,54.40
2019-04-20T13:24:24.973Z,54.40
2019-04-20T13:26:55.215Z,53.10
2019-04-20T13:29:24.888Z,53.80
2019-04-20T13:31:55.469Z,51.70
2019-04-20T13:34:24.652Z,53.40
2019-04-20T13:36:55.983Z,52.80
2019-04-20T13:39:45.073Z,53.20
2019-04-20T13:42:21.213Z,53.30
2019-04-20T13:44:45.835Z,52.70
2019-04-20T13:47:14.856Z,50.70
2019-04-20T13:49:45.179Z,52.20
2019-04-20T13:52:15.092Z,53.20
2019-04-20T13:54:45.258Z,53.60
2019-04-20T14:01:08.505Z,52.90
2019-04-20T14:06:55.228Z,54.90
2019-04-20T14:09:25.623Z,54.10
2019-04-20T14:11:55.404Z,52.50
2019-04-20T14:14:25.390Z,52.60
2019-04-20T14:17:08.821Z,51.50
2019-04-20T14:19:39.091Z,54.10
2019-04-20T14:22:10.191Z,53.00
2019-04-20T14:24:40.347Z,53.10
2019-04-20T14:27:10.819Z,53.80
2019-04-20T14:29:41.195Z,51.90
2019-04-20T14:32:12.031Z,52.50
2019-04-20T14:34:42.976Z,52.50
2019-04-20T14:37:12.972Z,52.50
2019-04-20T14:39:42.616Z,52.20
2019-04-20T14:42:23.340Z,52.70
2019-04-20T14:44:43.656Z,53.10
2019-04-20T14:47:13.875Z,52.20
2019-04-20T14:49:43.805Z,50.60
2019-04-20T14:52:13.510Z,51.30
2019-04-20T14:54:43.602Z,51.40
2019-04-20T14:57:13.712Z,52.30
2019-04-20T14:59:45.445Z,51.10
2019-04-20T15:02:17.389Z,51.20
2019-04-20T15:04:49.364Z,52.60
2019-04-20T15:07:18.936Z,50.40
2019-04-20T15:09:48.809Z,52.30
2019-04-20T15:12:21.256Z,53.20
2019-04-20T15:14:52.565Z,53.00
2019-04-20T15:17:23.968Z,53.10
2019-04-20T15:19:57.341Z,53.60
2019-04-20T15:22:35.791Z,55.30
2019-04-20T15:25:07.622Z,50.60
2019-04-20T15:27:37.494Z,52.90
2019-04-20T15:30:08.621Z,52.90
2019-04-20T15:32:39.051Z,53.50
2019-04-20T15:35:11.094Z,53.50
2019-04-20T15:37:41.242Z,53.80
2019-04-20T15:40:14.996Z,54.20
2019-04-20T15:42:57.437Z,55.00
2019-04-20T15:45:23.144Z,55.20
2019-04-20T15:47:54.172Z,55.30
2019-04-20T15:50:23.797Z,54.60
2019-04-20T15:52:56.583Z,54.80
2019-04-20T15:55:31.009Z,55.20
2019-04-20T15:58:05.110Z,55.80
2019-04-20T16:00:42.531Z,55.20
2019-04-20T16:06:13.552Z,55.00
2019-04-20T16:08:46.006Z,55.60
2019-04-20T16:11:17.315Z,55.60
2019-04-20T16:13:50.418Z,55.60
2019-04-20T16:16:25.565Z,55.30
2019-04-20T16:18:57.001Z,55.20
2019-04-20T16:21:32.056Z,54.30
2019-04-20T16:24:01.613Z,55.10
2019-04-20T16:26:33.514Z,55.10
2019-04-20T16:29:04.020Z,55.10
2019-04-20T16:31:33.608Z,55.00
2019-04-20T16:34:03.364Z,54.90
2019-04-20T16:36:34.319Z,55.50
2019-04-20T16:39:05.914Z,55.20
2019-04-20T16:41:38.261Z,54.70
2019-04-20T16:44:17.434Z,54.90
2019-04-20T16:46:48.067Z,54.80
2019-04-20T16:49:21.305Z,54.40
2019-04-20T16:51:52.558Z,54.90
2019-04-20T16:54:23.705Z,55.10
2019-04-20T16:56:56.855Z,54.60
2019-04-20T16:59:28.138Z,53.10
2019-04-20T17:01:58.278Z,55.40
2019-04-20T17:04:31.906Z,56.50
2019-04-20T17:07:10.165Z,55.50
2019-04-20T17:09:42.034Z,56.80
2019-04-20T17:12:15.442Z,56.60
2019-04-20T17:14:58.315Z,55.50
2019-04-20T17:17:29.441Z,55.60
2019-04-20T17:19:59.733Z,55.30
2019-04-20T17:22:32.300Z,56.30
2019-04-20T17:25:06.024Z,54.90
2019-04-20T17:27:51.345Z,55.60
2019-04-20T17:30:27.070Z,55.70
2019-04-20T17:33:06.176Z,57.30
2019-04-20T17:36:11.029Z,57.60
2019-04-20T17:38:59.695Z,55.50
2019-04-20T17:42:10.124Z,56.10
2019-04-20T17:44:51.603Z,56.10
2019-04-20T17:47:38.938Z,55.80
2019-04-20T17:53:02.760Z,57.50
2019-04-20T17:55:40.850Z,57.90
2019-04-20T17:58:05.763Z,57.70
2019-04-20T18:04:03.285Z,59.50
2019-04-20T18:06:35.825Z,59.10
2019-04-20T18:09:04.126Z,59.20
2019-04-20T18:11:25.291Z,58.60
2019-04-20T18:14:05.583Z,59.90
2019-04-20T18:16:48.055Z,58.30
2019-04-20T18:19:13.299Z,58.90
2019-04-20T18:21:55.943Z,59.10
2019-04-20T18:24:48.978Z,59.40
2019-04-20T18:27:18.263Z,60.00
2019-04-20T18:29:50.325Z,60.10
2019-04-20T18:32:03.528Z,60.40
2019-04-20T18:34:36.177Z,60.30
2019-04-20T18:37:11.591Z,60.50
2019-04-20T18:39:46.222Z,61.00
2019-04-20T18:42:16.557Z,61.20
2019-04-20T18:45:02.603Z,61.20
2019-04-20T18:47:28.800Z,61.40
2019-04-20T18:49:50.484Z,61.80
2019-04-20T18:52:15.725Z,62.10
2019-04-20T18:54:48.493Z,62.90
2019-04-20T18:57:22.796Z,62.90
2019-04-20T18:59:52.530Z,62.90
2019-04-20T19:02:26.987Z,63.20
2019-04-20T19:04:50.183Z,63.00
2019-04-20T19:07:19.792Z,63.70
2019-04-20T19:09:55.227Z,64.00
2019-04-20T19:12:28.488Z,64.10
2019-04-20T19:15:20.561Z,64.60
2019-04-20T19:20:29.273Z,64.80
2019-04-20T19:23:00.062Z,65.70
2019-04-20T19:25:33.154Z,65.90
2019-04-20T19:28:02.894Z,66.10
2019-04-20T19:30:41.027Z,66.40
2019-04-20T19:33:19.010Z,66.20
2019-04-20T19:35:48.132Z,67.20
2019-04-20T19:38:16.880Z,67.60
2019-04-20T19:40:51.204Z,68.00
2019-04-20T19:43:22.060Z,68.40
2019-04-20T19:46:25.690Z,68.60
2019-04-20T19:48:27.848Z,69.00
2019-04-20T19:51:06.867Z,69.20
2019-04-20T19:53:36.625Z,68.70
2019-04-20T19:56:03.656Z,69.40
2019-04-20T19:58:33.118Z,71.30
2019-04-20T20:00:55.767Z,68.40
2019-04-20T20:03:25.643Z,68.50
2019-04-20T20:05:56.509Z,68.70
2019-04-20T20:08:31.061Z,69.00
2019-04-20T20:11:01.181Z,69.00
2019-04-20T20:13:44.755Z,69.30
2019-04-20T20:16:20.286Z,70.20
2019-04-20T20:18:55.906Z,69.10
2019-04-20T20:21:45.761Z,69.20
2019-04-20T20:24:19.442Z,70.00
2019-04-20T20:26:55.730Z,69.70
2019-04-20T20:29:28.458Z,69.00
2019-04-20T20:32:05.134Z,68.80
2019-04-20T20:34:28.579Z,69.00
2019-04-20T20:36:59.790Z,69.10
2019-04-20T20:39:31.082Z,68.90
2019-04-20T20:42:14.298Z,69.10
2019-04-20T20:44:39.055Z,70.00
2019-04-20T20:47:29.860Z,69.90
2019-04-20T20:49:56.905Z,70.80
2019-04-20T20:52:24.420Z,70.60
2019-04-20T20:54:49.567Z,70.80
2019-04-20T20:57:13.221Z,71.30
2019-04-20T20:59:52.826Z,71.70
2019-04-20T21:02:15.840Z,71.50
2019-04-20T21:04:43.654Z,71.60
2019-04-20T21:07:13.527Z,71.60
2019-04-20T21:09:45.845Z,71.70
2019-04-20T21:12:18.081Z,72.90
2019-04-20T21:14:47.327Z,72.60
2019-04-20T21:17:21.514Z,72.90
2019-04-20T21:20:06.317Z,72.70
2019-04-20T21:22:41.333Z,73.30
2019-04-20T21:24:58.877Z,73.60
2019-04-20T21:27:29.788Z,74.20
2019-04-20T21:30:01.391Z,74.10
2019-04-20T21:32:35.092Z,74.50
2019-04-20T21:35:06.381Z,74.20
2019-04-20T21:37:43.429Z,74.10
2019-04-20T21:40:22.785Z,74.40
2019-04-20T21:42:49.964Z,73.60
2019-04-20T21:45:20.134Z,73.50
2019-04-20T21:47:46.387Z,73.50
2019-04-20T21:50:34.210Z,73.50
2019-04-20T21:52:50.529Z,73.70
2019-04-20T21:55:18.333Z,73.20
2019-04-20T21:57:53.910Z,73.20
2019-04-20T22:00:45.643Z,73.60
2019-04-20T22:03:15.531Z,73.50
2019-04-20T22:05:46.443Z,73.60
2019-04-20T22:08:18.169Z,73.50
2019-04-20T22:11:09.719Z,75.20
2019-04-20T22:13:43.539Z,74.50
2019-04-20T22:16:12.505Z,73.50
2019-04-20T22:19:10.320Z,73.20
2019-04-20T22:21:35.492Z,74.50
2019-04-20T22:24:25.236Z,73.60
2019-04-20T22:26:53.541Z,74.20
2019-04-20T22:29:12.035Z,73.50
2019-04-20T22:31:47.346Z,72.90
2019-04-20T22:34:19.074Z,73.20
2019-04-20T22:36:48.464Z,73.30
2019-04-20T22:39:24.483Z,72.80
2019-04-20T22:41:58.647Z,72.70
2019-04-20T22:44:26.667Z,71.80
2019-04-20T22:46:56.389Z,71.80
2019-04-20T22:49:39.911Z,71.00
2019-04-20T22:52:05.861Z,71.30
2019-04-20T22:54:55.109Z,71.50
2019-04-20T22:57:30.365Z,72.20
2019-04-20T22:59:54.435Z,71.00
2019-04-20T23:04:54.973Z,69.70
2019-04-20T23:07:24.616Z,70.50
2019-04-20T23:09:57.732Z,70.50
2019-04-20T23:12:27.060Z,70.50
2019-04-20T23:14:56.575Z,69.90
2019-04-20T23:17:33.510Z,70.10
2019-04-20T23:20:00.028Z,69.60
2019-04-20T23:22:36.671Z,69.00
2019-04-20T23:25:00.567Z,68.90
2019-04-20T23:27:32.134Z,68.80
2019-04-20T23:30:05.569Z,69.10
2019-04-20T23:32:33.938Z,69.20
2019-04-20T23:35:11.337Z,69.40
2019-04-20T23:37:38.290Z,69.30
2019-04-20T23:40:10.077Z,68.10
2019-04-20T23:42:44.525Z,68.70
2019-04-20T23:45:16.932Z,68.90
2019-04-20T23:51:36.789Z,70.00
2019-04-20T23:53:54.066Z,70.10
2019-04-20T23:56:18.392Z,69.30
2019-04-20T23:58:49.608Z,69.30
